sensor_id;sensor_type;location;lat;lon;timestamp;pressure;altitude;pressure_sealevel;temperature;humidity
58239;BME280;44037;55.638;37.356;2024-01-10T00:00:15;97852.78;;;-4.31;89.08
58239;BME280;44037;55.638;37.356;2024-01-10T00:02:43;97860.50;;;-4.29;89.21
58239;BME280;44037;55.638;37.356;2024-01-10T00:05:10;97855.53;;;-4.33;89.19
58239;BME280;44037;55.638;37.356;2024-01-10T00:07:37;97852.56;;;-4.18;89.42
58239;BME280;44037;55.638;37.356;2024-01-10T00:10:05;97856.00;;;-4.18;88.98
58239;BME280;44037;55.638;37.356;2024-01-10T00:12:33;97833.78;;;-4.13;89.13
58239;BME280;44037;55.638;37.356;2024-01-10T00:15:05;97839.88;;;-4.13;89.15
58239;BME280;44037;55.638;37.356;2024-01-10T00:17:33;97822.91;;;-4.09;89.14
58239;BME280;44037;55.638;37.356;2024-01-10T00:20:00;97832.59;;;-4.00;89.24
58239;BME280;44037;55.638;37.356;2024-01-10T00:22:27;97817.16;;;-3.93;88.99
58239;BME280;44037;55.638;37.356;2024-01-10T00:24:55;97809.03;;;-3.90;88.80
58239;BME280;44037;55.638;37.356;2024-01-10T00:27:22;97810.97;;;-3.92;88.75
58239;BME280;44037;55.638;37.356;2024-01-10T00:29:50;97811.81;;;-3.82;88.87
58239;BME280;44037;55.638;37.356;2024-01-10T00:32:19;97807.13;;;-3.78;88.84
58239;BME280;44037;55.638;37.356;2024-01-10T00:34:46;97814.72;;;-3.75;88.76
58239;BME280;44037;55.638;37.356;2024-01-10T00:37:14;97821.22;;;-3.79;88.61
58239;BME280;44037;55.638;37.356;2024-01-10T00:39:41;97805.50;;;-3.69;89.03
58239;BME280;44037;55.638;37.356;2024-01-10T00:42:09;97811.56;;;-3.69;88.80
58239;BME280;44037;55.638;37.356;2024-01-10T00:44:36;97809.09;;;-3.60;88.56
58239;BME280;44037;55.638;37.356;2024-01-10T00:47:05;97823.19;;;-3.61;88.29
58239;BME280;44037;55.638;37.356;2024-01-10T00:49:34;97814.06;;;-3.57;88.46
58239;BME280;44037;55.638;37.356;2024-01-10T00:52:02;97823.19;;;-3.61;88.20
58239;BME280;44037;55.638;37.356;2024-01-10T00:54:29;97816.00;;;-3.59;87.99
58239;BME280;44037;55.638;37.356;2024-01-10T00:56:57;97813.25;;;-3.48;87.88
58239;BME280;44037;55.638;37.356;2024-01-10T00:59:24;97831.34;;;-3.35;87.87
58239;BME280;44037;55.638;37.356;2024-01-10T01:01:52;97821.13;;;-3.48;87.63
58239;BME280;44037;55.638;37.356;2024-01-10T01:04:19;97814.09;;;-3.38;87.57
58239;BME280;44037;55.638;37.356;2024-01-10T01:06:48;97830.66;;;-3.47;87.39
58239;BME280;44037;55.638;37.356;2024-01-10T01:09:15;97829.84;;;-3.28;87.24
58239;BME280;44037;55.638;37.356;2024-01-10T01:11:43;97834.41;;;-3.30;86.26
58239;BME280;44037;55.638;37.356;2024-01-10T01:14:10;97845.47;;;-3.26;85.90
58239;BME280;44037;55.638;37.356;2024-01-10T01:16:38;97860.81;;;-3.32;86.41
58239;BME280;44037;55.638;37.356;2024-01-10T01:19:05;97852.78;;;-3.40;87.59
58239;BME280;44037;55.638;37.356;2024-01-10T01:21:33;97866.03;;;-3.41;88.01
58239;BME280;44037;55.638;37.356;2024-01-10T01:24:02;97852.34;;;-3.35;87.75
58239;BME280;44037;55.638;37.356;2024-01-10T01:26:29;97842.41;;;-3.32;87.72
58239;BME280;44037;55.638;37.356;2024-01-10T01:28:56;97846.72;;;-3.30;87.40
58239;BME280;44037;55.638;37.356;2024-01-10T01:31:24;97858.19;;;-3.32;87.38
58239;BME280;44037;55.638;37.356;2024-01-10T01:33:51;97853.63;;;-3.29;87.60
58239;BME280;44037;55.638;37.356;2024-01-10T01:36:19;97867.84;;;-3.32;87.77
58239;BME280;44037;55.638;37.356;2024-01-10T01:38:46;97890.09;;;-3.26;88.51
58239;BME280;44037;55.638;37.356;2024-01-10T01:41:15;97874.75;;;-3.31;88.56
58239;BME280;44037;55.638;37.356;2024-01-10T01:43:43;97875.31;;;-3.27;88.43
58239;BME280;44037;55.638;37.356;2024-01-10T01:46:11;97877.63;;;-3.44;88.38
58239;BME280;44037;55.638;37.356;2024-01-10T01:48:39;97877.38;;;-3.31;88.44
58239;BME280;44037;55.638;37.356;2024-01-10T01:51:08;97899.22;;;-3.30;88.07
58239;BME280;44037;55.638;37.356;2024-01-10T01:53:36;97890.75;;;-3.44;87.20
58239;BME280;44037;55.638;37.356;2024-01-10T01:56:06;97905.09;;;-3.48;86.49
58239;BME280;44037;55.638;37.356;2024-01-10T01:58:36;97914.75;;;-3.58;86.28
58239;BME280;44037;55.638;37.356;2024-01-10T02:01:04;97956.06;;;-3.60;85.08
58239;BME280;44037;55.638;37.356;2024-01-10T02:03:32;97946.31;;;-3.70;84.64
58239;BME280;44037;55.638;37.356;2024-01-10T02:06:00;97936.75;;;-3.80;85.12
58239;BME280;44037;55.638;37.356;2024-01-10T02:08:29;97960.69;;;-3.74;85.21
58239;BME280;44037;55.638;37.356;2024-01-10T02:10:57;97964.81;;;-3.81;83.88
58239;BME280;44037;55.638;37.356;2024-01-10T02:13:24;97957.38;;;-3.76;83.28
58239;BME280;44037;55.638;37.356;2024-01-10T02:15:54;97955.44;;;-3.74;82.41
58239;BME280;44037;55.638;37.356;2024-01-10T02:18:21;97972.69;;;-3.71;81.99
58239;BME280;44037;55.638;37.356;2024-01-10T02:20:49;97975.59;;;-3.74;81.46
58239;BME280;44037;55.638;37.356;2024-01-10T02:23:18;97973.13;;;-3.76;81.67
58239;BME280;44037;55.638;37.356;2024-01-10T02:25:47;97997.69;;;-3.77;81.02
58239;BME280;44037;55.638;37.356;2024-01-10T02:28:14;97992.00;;;-3.82;81.36
58239;BME280;44037;55.638;37.356;2024-01-10T02:30:41;97991.56;;;-3.87;81.41
58239;BME280;44037;55.638;37.356;2024-01-10T02:33:09;98010.59;;;-3.85;81.52
58239;BME280;44037;55.638;37.356;2024-01-10T02:35:36;98004.81;;;-3.89;81.42
58239;BME280;44037;55.638;37.356;2024-01-10T02:38:05;98024.34;;;-3.93;81.41
58239;BME280;44037;55.638;37.356;2024-01-10T02:40:33;98079.50;;;-4.37;83.28
58239;BME280;44037;55.638;37.356;2024-01-10T02:43:02;98073.03;;;-4.65;85.83
58239;BME280;44037;55.638;37.356;2024-01-10T02:45:30;98057.38;;;-4.99;86.42
58239;BME280;44037;55.638;37.356;2024-01-10T02:47:57;98138.66;;;-5.23;86.16
58239;BME280;44037;55.638;37.356;2024-01-10T02:50:25;98134.13;;;-5.33;87.22
58239;BME280;44037;55.638;37.356;2024-01-10T02:52:52;98120.81;;;-5.41;87.00
58239;BME280;44037;55.638;37.356;2024-01-10T02:55:19;98096.78;;;-5.46;85.95
58239;BME280;44037;55.638;37.356;2024-01-10T02:57:47;98092.38;;;-5.45;84.35
58239;BME280;44037;55.638;37.356;2024-01-10T03:00:16;98095.59;;;-5.42;84.13
58239;BME280;44037;55.638;37.356;2024-01-10T03:02:43;98102.50;;;-5.29;84.06
58239;BME280;44037;55.638;37.356;2024-01-10T03:05:11;98107.97;;;-5.33;83.43
58239;BME280;44037;55.638;37.356;2024-01-10T03:07:38;98184.06;;;-5.47;82.51
58239;BME280;44037;55.638;37.356;2024-01-10T03:10:06;98151.28;;;-5.75;81.86
58239;BME280;44037;55.638;37.356;2024-01-10T03:12:35;98177.28;;;-5.85;81.46
58239;BME280;44037;55.638;37.356;2024-01-10T03:15:04;98168.91;;;-6.02;81.27
58239;BME280;44037;55.638;37.356;2024-01-10T03:17:34;98202.59;;;-6.10;81.06
58239;BME280;44037;55.638;37.356;2024-01-10T03:20:01;98201.97;;;-6.14;80.88
58239;BME280;44037;55.638;37.356;2024-01-10T03:22:30;98194.25;;;-6.15;80.49
58239;BME280;44037;55.638;37.356;2024-01-10T03:24:58;98188.63;;;-6.22;80.67
58239;BME280;44037;55.638;37.356;2024-01-10T03:27:25;98216.47;;;-6.34;79.41
58239;BME280;44037;55.638;37.356;2024-01-10T03:29:53;98222.34;;;-6.43;78.53
58239;BME280;44037;55.638;37.356;2024-01-10T03:32:20;98265.41;;;-6.49;77.70
58239;BME280;44037;55.638;37.356;2024-01-10T03:34:49;98225.94;;;-6.57;77.48
58239;BME280;44037;55.638;37.356;2024-01-10T03:37:18;98229.06;;;-6.65;77.25
58239;BME280;44037;55.638;37.356;2024-01-10T03:39:45;98253.50;;;-6.66;77.55
58239;BME280;44037;55.638;37.356;2024-01-10T03:42:12;98253.94;;;-6.72;77.59
58239;BME280;44037;55.638;37.356;2024-01-10T03:44:41;98296.97;;;-6.77;77.84
58239;BME280;44037;55.638;37.356;2024-01-10T03:47:08;98285.25;;;-6.72;78.18
58239;BME280;44037;55.638;37.356;2024-01-10T03:49:36;98272.22;;;-6.72;78.31
58239;BME280;44037;55.638;37.356;2024-01-10T03:52:05;98314.91;;;-6.73;77.83
58239;BME280;44037;55.638;37.356;2024-01-10T03:54:33;98315.38;;;-6.79;77.61
58239;BME280;44037;55.638;37.356;2024-01-10T03:57:01;98339.03;;;-6.95;77.56
58239;BME280;44037;55.638;37.356;2024-01-10T03:59:28;98324.31;;;-7.09;77.52
58239;BME280;44037;55.638;37.356;2024-01-10T04:01:55;98410.16;;;-7.19;76.38
58239;BME280;44037;55.638;37.356;2024-01-10T04:04:23;98375.81;;;-7.25;76.43
58239;BME280;44037;55.638;37.356;2024-01-10T04:06:50;98400.19;;;-7.39;76.34
58239;BME280;44037;55.638;37.356;2024-01-10T04:09:19;98368.22;;;-7.43;76.47
58239;BME280;44037;55.638;37.356;2024-01-10T04:11:46;98364.69;;;-7.42;76.73
58239;BME280;44037;55.638;37.356;2024-01-10T04:14:14;98397.84;;;-7.44;77.29
58239;BME280;44037;55.638;37.356;2024-01-10T04:16:41;98400.78;;;-7.49;77.64
58239;BME280;44037;55.638;37.356;2024-01-10T04:19:08;98438.72;;;-7.57;76.81
58239;BME280;44037;55.638;37.356;2024-01-10T04:21:36;98408.19;;;-7.55;77.40
58239;BME280;44037;55.638;37.356;2024-01-10T04:24:04;98417.56;;;-7.67;76.63
58239;BME280;44037;55.638;37.356;2024-01-10T04:26:33;98436.16;;;-7.86;75.65
58239;BME280;44037;55.638;37.356;2024-01-10T04:29:00;98424.69;;;-7.98;76.51
58239;BME280;44037;55.638;37.356;2024-01-10T04:31:27;98448.13;;;-7.98;76.75
58239;BME280;44037;55.638;37.356;2024-01-10T04:33:55;98475.13;;;-8.14;76.17
58239;BME280;44037;55.638;37.356;2024-01-10T04:36:22;98477.25;;;-8.20;76.12
58239;BME280;44037;55.638;37.356;2024-01-10T04:38:50;98496.22;;;-8.33;76.38
58239;BME280;44037;55.638;37.356;2024-01-10T04:41:17;98491.53;;;-8.42;76.74
58239;BME280;44037;55.638;37.356;2024-01-10T04:43:46;98493.09;;;-8.39;77.04
58239;BME280;44037;55.638;37.356;2024-01-10T04:46:13;98501.91;;;-8.56;77.22
58239;BME280;44037;55.638;37.356;2024-01-10T04:48:41;98519.41;;;-8.58;77.51
58239;BME280;44037;55.638;37.356;2024-01-10T04:51:08;98509.31;;;-8.65;77.70
58239;BME280;44037;55.638;37.356;2024-01-10T04:53:36;98515.44;;;-8.66;77.95
58239;BME280;44037;55.638;37.356;2024-01-10T04:56:04;98521.28;;;-8.76;78.27
58239;BME280;44037;55.638;37.356;2024-01-10T04:58:31;98529.22;;;-8.64;78.24
58239;BME280;44037;55.638;37.356;2024-01-10T05:01:01;98529.09;;;-8.46;78.77
58239;BME280;44037;55.638;37.356;2024-01-10T05:03:29;98542.72;;;-8.57;76.83
58239;BME280;44037;55.638;37.356;2024-01-10T05:05:56;98551.94;;;-8.51;76.18
58239;BME280;44037;55.638;37.356;2024-01-10T05:08:24;98565.75;;;-8.65;75.46
58239;BME280;44037;55.638;37.356;2024-01-10T05:10:52;98561.44;;;-8.50;75.41
58239;BME280;44037;55.638;37.356;2024-01-10T05:13:19;98585.66;;;-8.80;75.05
58239;BME280;44037;55.638;37.356;2024-01-10T05:15:47;98587.50;;;-8.82;74.91
58239;BME280;44037;55.638;37.356;2024-01-10T05:18:16;98598.44;;;-8.75;74.13
58239;BME280;44037;55.638;37.356;2024-01-10T05:20:44;98602.63;;;-8.89;74.12
58239;BME280;44037;55.638;37.356;2024-01-10T05:23:12;98619.72;;;-9.17;73.38
58239;BME280;44037;55.638;37.356;2024-01-10T05:25:39;98621.47;;;-9.17;73.84
58239;BME280;44037;55.638;37.356;2024-01-10T05:28:07;98634.44;;;-9.00;75.46
58239;BME280;44037;55.638;37.356;2024-01-10T05:30:34;98642.63;;;-9.07;74.64
58239;BME280;44037;55.638;37.356;2024-01-10T05:33:02;98651.34;;;-9.24;74.21
58239;BME280;44037;55.638;37.356;2024-01-10T05:35:31;98650.34;;;-9.22;75.10
58239;BME280;44037;55.638;37.356;2024-01-10T05:37:58;98662.56;;;-9.24;74.65
58239;BME280;44037;55.638;37.356;2024-01-10T05:40:26;98667.03;;;-9.44;74.25
58239;BME280;44037;55.638;37.356;2024-01-10T05:42:56;98665.31;;;-9.61;73.97
58239;BME280;44037;55.638;37.356;2024-01-10T05:45:24;98672.84;;;-9.56;75.02
58239;BME280;44037;55.638;37.356;2024-01-10T05:47:51;98685.03;;;-9.56;74.36
58239;BME280;44037;55.638;37.356;2024-01-10T05:50:18;98697.25;;;-9.41;74.25
58239;BME280;44037;55.638;37.356;2024-01-10T05:52:48;98694.34;;;-9.70;75.85
58239;BME280;44037;55.638;37.356;2024-01-10T05:55:15;98707.94;;;-9.47;75.29
58239;BME280;44037;55.638;37.356;2024-01-10T05:57:43;98718.94;;;-9.60;75.55
58239;BME280;44037;55.638;37.356;2024-01-10T06:00:11;98725.31;;;-9.65;74.84
58239;BME280;44037;55.638;37.356;2024-01-10T06:02:42;98734.63;;;-9.79;75.03
58239;BME280;44037;55.638;37.356;2024-01-10T06:05:10;98755.34;;;-10.14;74.38
58239;BME280;44037;55.638;37.356;2024-01-10T06:07:38;98760.53;;;-10.14;74.87
58239;BME280;44037;55.638;37.356;2024-01-10T06:10:09;98764.75;;;-10.11;75.87
58239;BME280;44037;55.638;37.356;2024-01-10T06:12:36;98778.44;;;-10.07;74.97
58239;BME280;44037;55.638;37.356;2024-01-10T06:15:06;98784.63;;;-10.48;75.66
58239;BME280;44037;55.638;37.356;2024-01-10T06:17:34;98802.25;;;-10.36;75.92
58239;BME280;44037;55.638;37.356;2024-01-10T06:20:01;98809.97;;;-10.53;75.20
58239;BME280;44037;55.638;37.356;2024-01-10T06:22:30;98825.66;;;-10.56;75.28
58239;BME280;44037;55.638;37.356;2024-01-10T06:24:58;98827.44;;;-10.78;74.64
58239;BME280;44037;55.638;37.356;2024-01-10T06:27:27;98835.38;;;-10.62;75.38
58239;BME280;44037;55.638;37.356;2024-01-10T06:29:56;98843.59;;;-10.91;73.78
58239;BME280;44037;55.638;37.356;2024-01-10T06:32:23;98847.16;;;-10.94;74.17
58239;BME280;44037;55.638;37.356;2024-01-10T06:34:52;98856.81;;;-10.77;74.44
58239;BME280;44037;55.638;37.356;2024-01-10T06:37:20;98855.97;;;-10.98;74.00
58239;BME280;44037;55.638;37.356;2024-01-10T06:39:47;98857.22;;;-10.86;74.43
58239;BME280;44037;55.638;37.356;2024-01-10T06:42:14;98855.59;;;-10.89;74.04
58239;BME280;44037;55.638;37.356;2024-01-10T06:44:43;98879.63;;;-11.06;73.31
58239;BME280;44037;55.638;37.356;2024-01-10T06:47:11;98876.88;;;-11.01;74.22
58239;BME280;44037;55.638;37.356;2024-01-10T06:49:41;98873.31;;;-10.78;74.90
58239;BME280;44037;55.638;37.356;2024-01-10T06:52:08;98886.38;;;-10.81;74.48
58239;BME280;44037;55.638;37.356;2024-01-10T06:54:36;98890.75;;;-10.82;75.07
58239;BME280;44037;55.638;37.356;2024-01-10T06:57:03;98903.78;;;-10.63;74.97
58239;BME280;44037;55.638;37.356;2024-01-10T06:59:31;98901.44;;;-10.48;73.76
58239;BME280;44037;55.638;37.356;2024-01-10T07:02:00;98894.72;;;-10.33;74.01
58239;BME280;44037;55.638;37.356;2024-01-10T07:04:27;98905.81;;;-10.30;73.01
58239;BME280;44037;55.638;37.356;2024-01-10T07:06:55;98908.38;;;-10.90;73.10
58239;BME280;44037;55.638;37.356;2024-01-10T07:09:22;98923.16;;;-10.92;72.92
58239;BME280;44037;55.638;37.356;2024-01-10T07:11:50;98920.31;;;-11.06;74.53
58239;BME280;44037;55.638;37.356;2024-01-10T07:14:17;98926.34;;;-11.28;73.83
58239;BME280;44037;55.638;37.356;2024-01-10T07:16:44;98950.19;;;-11.42;74.36
58239;BME280;44037;55.638;37.356;2024-01-10T07:19:14;98962.91;;;-11.58;74.71
58239;BME280;44037;55.638;37.356;2024-01-10T07:21:42;98947.03;;;-11.72;75.32
58239;BME280;44037;55.638;37.356;2024-01-10T07:24:10;98947.75;;;-11.69;75.39
58239;BME280;44037;55.638;37.356;2024-01-10T07:26:38;98957.06;;;-11.63;75.43
58239;BME280;44037;55.638;37.356;2024-01-10T07:29:05;98968.09;;;-11.58;75.20
58239;BME280;44037;55.638;37.356;2024-01-10T07:31:34;98959.47;;;-11.59;75.88
58239;BME280;44037;55.638;37.356;2024-01-10T07:34:02;98958.78;;;-11.64;75.24
58239;BME280;44037;55.638;37.356;2024-01-10T07:36:33;98969.22;;;-11.65;75.32
58239;BME280;44037;55.638;37.356;2024-01-10T07:39:01;98962.53;;;-11.71;75.33
58239;BME280;44037;55.638;37.356;2024-01-10T07:41:28;98976.59;;;-11.78;75.09
58239;BME280;44037;55.638;37.356;2024-01-10T07:43:55;98978.16;;;-11.74;75.57
58239;BME280;44037;55.638;37.356;2024-01-10T07:46:23;98981.34;;;-11.66;75.50
58239;BME280;44037;55.638;37.356;2024-01-10T07:48:51;98995.47;;;-11.74;75.11
58239;BME280;44037;55.638;37.356;2024-01-10T07:51:19;98984.09;;;-11.70;75.46
58239;BME280;44037;55.638;37.356;2024-01-10T07:53:49;98999.22;;;-11.60;75.27
58239;BME280;44037;55.638;37.356;2024-01-10T07:56:16;99002.72;;;-11.61;75.20
58239;BME280;44037;55.638;37.356;2024-01-10T07:58:45;99005.94;;;-11.54;75.20
58239;BME280;44037;55.638;37.356;2024-01-10T08:01:13;99001.53;;;-11.52;75.51
58239;BME280;44037;55.638;37.356;2024-01-10T08:03:40;98999.38;;;-11.40;75.23
58239;BME280;44037;55.638;37.356;2024-01-10T08:06:08;99004.78;;;-11.23;74.47
58239;BME280;44037;55.638;37.356;2024-01-10T08:08:36;99007.00;;;-11.14;74.32
58239;BME280;44037;55.638;37.356;2024-01-10T08:11:05;99015.56;;;-10.89;74.11
58239;BME280;44037;55.638;37.356;2024-01-10T08:13:32;99021.19;;;-10.78;73.23
58239;BME280;44037;55.638;37.356;2024-01-10T08:16:00;99021.50;;;-10.86;73.18
58239;BME280;44037;55.638;37.356;2024-01-10T08:18:27;99026.91;;;-11.14;72.38
58239;BME280;44037;55.638;37.356;2024-01-10T08:20:55;99034.13;;;-11.22;72.52
58239;BME280;44037;55.638;37.356;2024-01-10T08:23:22;99020.25;;;-11.21;73.11
58239;BME280;44037;55.638;37.356;2024-01-10T08:25:50;99017.59;;;-10.98;73.25
58239;BME280;44037;55.638;37.356;2024-01-10T08:28:18;99023.44;;;-10.91;72.24
58239;BME280;44037;55.638;37.356;2024-01-10T08:30:46;99008.47;;;-11.06;72.63
58239;BME280;44037;55.638;37.356;2024-01-10T08:33:13;99017.25;;;-11.11;71.88
58239;BME280;44037;55.638;37.356;2024-01-10T08:35:41;99021.97;;;-11.20;71.72
58239;BME280;44037;55.638;37.356;2024-01-10T08:38:09;99016.59;;;-10.94;72.13
58239;BME280;44037;55.638;37.356;2024-01-10T08:40:36;99028.25;;;-10.82;72.05
58239;BME280;44037;55.638;37.356;2024-01-10T08:43:04;99029.38;;;-10.67;71.22
58239;BME280;44037;55.638;37.356;2024-01-10T08:45:33;99033.31;;;-11.01;71.72
58239;BME280;44037;55.638;37.356;2024-01-10T08:48:00;99025.81;;;-10.86;71.60
58239;BME280;44037;55.638;37.356;2024-01-10T08:50:28;99028.41;;;-10.86;71.80
58239;BME280;44037;55.638;37.356;2024-01-10T08:52:55;99037.50;;;-11.20;73.42
58239;BME280;44037;55.638;37.356;2024-01-10T08:55:23;99031.97;;;-10.89;71.97
58239;BME280;44037;55.638;37.356;2024-01-10T08:57:50;99035.53;;;-10.91;71.88
58239;BME280;44037;55.638;37.356;2024-01-10T09:00:18;99050.44;;;-10.97;71.64
58239;BME280;44037;55.638;37.356;2024-01-10T09:02:47;99044.47;;;-10.99;71.88
58239;BME280;44037;55.638;37.356;2024-01-10T09:05:14;99038.69;;;-10.83;71.60
58239;BME280;44037;55.638;37.356;2024-01-10T09:07:42;99045.97;;;-10.71;71.24
58239;BME280;44037;55.638;37.356;2024-01-10T09:10:09;99050.25;;;-10.70;71.88
58239;BME280;44037;55.638;37.356;2024-01-10T09:12:37;99040.66;;;-10.68;71.36
58239;BME280;44037;55.638;37.356;2024-01-10T09:15:05;99052.09;;;-10.51;70.50
58239;BME280;44037;55.638;37.356;2024-01-10T09:17:38;99060.19;;;-10.37;71.35
58239;BME280;44037;55.638;37.356;2024-01-10T09:20:08;99072.50;;;-10.21;70.39
58239;BME280;44037;55.638;37.356;2024-01-10T09:22:36;99074.88;;;-10.58;70.50
58239;BME280;44037;55.638;37.356;2024-01-10T09:25:04;99078.72;;;-10.46;70.02
58239;BME280;44037;55.638;37.356;2024-01-10T09:27:32;99077.81;;;-10.45;69.63
58239;BME280;44037;55.638;37.356;2024-01-10T09:30:02;99079.25;;;-10.38;70.54
58239;BME280;44037;55.638;37.356;2024-01-10T09:32:34;99084.00;;;-10.27;70.06
58239;BME280;44037;55.638;37.356;2024-01-10T09:35:01;99079.13;;;-10.35;70.17
58239;BME280;44037;55.638;37.356;2024-01-10T09:37:32;99093.91;;;-10.57;70.83
58239;BME280;44037;55.638;37.356;2024-01-10T09:40:00;99103.25;;;-10.53;71.13
58239;BME280;44037;55.638;37.356;2024-01-10T09:42:28;99088.53;;;-10.32;71.70
58239;BME280;44037;55.638;37.356;2024-01-10T09:44:59;99088.88;;;-10.19;72.14
58239;BME280;44037;55.638;37.356;2024-01-10T09:47:27;99094.72;;;-10.14;70.47
58239;BME280;44037;55.638;37.356;2024-01-10T09:49:55;99094.47;;;-10.29;70.44
58239;BME280;44037;55.638;37.356;2024-01-10T09:52:24;99095.75;;;-10.39;70.54
58239;BME280;44037;55.638;37.356;2024-01-10T09:54:57;99093.84;;;-10.13;70.47
58239;BME280;44037;55.638;37.356;2024-01-10T09:57:25;99102.38;;;-10.11;70.51
58239;BME280;44037;55.638;37.356;2024-01-10T09:59:53;99096.78;;;-10.43;70.42
58239;BME280;44037;55.638;37.356;2024-01-10T10:02:21;99093.69;;;-10.53;70.39
58239;BME280;44037;55.638;37.356;2024-01-10T10:04:54;99092.31;;;-10.62;71.05
58239;BME280;44037;55.638;37.356;2024-01-10T10:07:22;99095.56;;;-10.56;70.37
58239;BME280;44037;55.638;37.356;2024-01-10T10:09:49;99097.75;;;-10.46;70.78
58239;BME280;44037;55.638;37.356;2024-01-10T10:12:20;99093.00;;;-10.36;70.43
58239;BME280;44037;55.638;37.356;2024-01-10T10:14:48;99091.34;;;-10.37;70.53
58239;BME280;44037;55.638;37.356;2024-01-10T10:17:15;99089.09;;;-10.46;71.24
58239;BME280;44037;55.638;37.356;2024-01-10T10:19:43;99094.19;;;-10.43;70.37
58239;BME280;44037;55.638;37.356;2024-01-10T10:22:11;99093.56;;;-10.72;70.83
58239;BME280;44037;55.638;37.356;2024-01-10T10:24:39;99095.75;;;-10.61;70.76
58239;BME280;44037;55.638;37.356;2024-01-10T10:27:11;99095.47;;;-10.53;70.62
58239;BME280;44037;55.638;37.356;2024-01-10T10:29:40;99099.75;;;-10.52;71.32
58239;BME280;44037;55.638;37.356;2024-01-10T10:32:07;99102.78;;;-10.20;69.82
58239;BME280;44037;55.638;37.356;2024-01-10T10:34:35;99088.53;;;-9.91;68.98
58239;BME280;44037;55.638;37.356;2024-01-10T10:37:03;99088.47;;;-9.89;68.39
58239;BME280;44037;55.638;37.356;2024-01-10T10:39:31;99096.00;;;-9.83;69.16
58239;BME280;44037;55.638;37.356;2024-01-10T10:42:00;99102.03;;;-10.24;67.58
58239;BME280;44037;55.638;37.356;2024-01-10T10:44:29;99096.28;;;-10.53;67.91
58239;BME280;44037;55.638;37.356;2024-01-10T10:47:04;99107.41;;;-10.94;69.81
58239;BME280;44037;55.638;37.356;2024-01-10T10:49:42;99089.91;;;-10.88;70.09
58239;BME280;44037;55.638;37.356;2024-01-10T10:52:12;99087.63;;;-10.74;70.64
58239;BME280;44037;55.638;37.356;2024-01-10T10:54:39;99086.88;;;-10.55;69.46
58239;BME280;44037;55.638;37.356;2024-01-10T10:57:07;99085.22;;;-10.36;69.61
58239;BME280;44037;55.638;37.356;2024-01-10T10:59:36;99082.91;;;-10.42;68.62
58239;BME280;44037;55.638;37.356;2024-01-10T11:02:08;99085.19;;;-10.34;68.81
58239;BME280;44037;55.638;37.356;2024-01-10T11:04:37;99089.28;;;-10.29;68.46
58239;BME280;44037;55.638;37.356;2024-01-10T11:07:07;99088.41;;;-10.29;68.94
58239;BME280;44037;55.638;37.356;2024-01-10T11:09:36;99083.59;;;-10.38;68.27
58239;BME280;44037;55.638;37.356;2024-01-10T11:12:15;99078.22;;;-10.34;68.88
58239;BME280;44037;55.638;37.356;2024-01-10T11:15:08;99083.56;;;-10.37;69.16
58239;BME280;44037;55.638;37.356;2024-01-10T11:17:59;99096.06;;;-10.69;69.83
58239;BME280;44037;55.638;37.356;2024-01-10T11:23:38;99097.31;;;-10.35;70.28
58239;BME280;44037;55.638;37.356;2024-01-10T11:26:07;99103.66;;;-10.42;68.41
58239;BME280;44037;55.638;37.356;2024-01-10T11:28:36;99106.72;;;-10.32;69.10
58239;BME280;44037;55.638;37.356;2024-01-10T11:31:03;99101.16;;;-10.23;69.61
58239;BME280;44037;55.638;37.356;2024-01-10T11:33:35;99101.59;;;-10.34;68.64
58239;BME280;44037;55.638;37.356;2024-01-10T11:36:13;99095.09;;;-10.44;69.07
58239;BME280;44037;55.638;37.356;2024-01-10T11:38:42;99097.44;;;-10.38;69.27
58239;BME280;44037;55.638;37.356;2024-01-10T11:41:11;99106.72;;;-10.32;69.56
58239;BME280;44037;55.638;37.356;2024-01-10T11:43:39;99106.13;;;-10.39;69.26
58239;BME280;44037;55.638;37.356;2024-01-10T11:46:06;99108.88;;;-10.42;69.48
58239;BME280;44037;55.638;37.356;2024-01-10T11:48:37;99106.38;;;-10.45;69.24
58239;BME280;44037;55.638;37.356;2024-01-10T11:51:05;99103.78;;;-10.45;69.09
58239;BME280;44037;55.638;37.356;2024-01-10T11:53:40;99105.03;;;-10.33;70.05
58239;BME280;44037;55.638;37.356;2024-01-10T11:56:13;99102.06;;;-10.46;69.21
58239;BME280;44037;55.638;37.356;2024-01-10T11:58:54;99106.75;;;-10.54;69.60
58239;BME280;44037;55.638;37.356;2024-01-10T12:01:22;99112.47;;;-10.46;68.99
58239;BME280;44037;55.638;37.356;2024-01-10T12:03:53;99124.91;;;-10.32;69.67
58239;BME280;44037;55.638;37.356;2024-01-10T12:06:21;99110.00;;;-10.49;68.91
58239;BME280;44037;55.638;37.356;2024-01-10T12:08:49;99111.97;;;-10.34;69.96
58239;BME280;44037;55.638;37.356;2024-01-10T12:11:17;99116.72;;;-10.23;69.41
58239;BME280;44037;55.638;37.356;2024-01-10T12:13:45;99121.25;;;-10.28;68.80
58239;BME280;44037;55.638;37.356;2024-01-10T12:16:12;99126.47;;;-10.28;69.17
58239;BME280;44037;55.638;37.356;2024-01-10T12:18:41;99119.78;;;-10.34;68.95
58239;BME280;44037;55.638;37.356;2024-01-10T12:21:10;99108.22;;;-10.27;68.43
58239;BME280;44037;55.638;37.356;2024-01-10T12:23:38;99106.41;;;-10.24;68.32
58239;BME280;44037;55.638;37.356;2024-01-10T12:26:09;99118.91;;;-10.12;69.07
58239;BME280;44037;55.638;37.356;2024-01-10T12:28:39;99108.84;;;-9.99;68.84
58239;BME280;44037;55.638;37.356;2024-01-10T12:31:08;99100.63;;;-9.90;68.92
58239;BME280;44037;55.638;37.356;2024-01-10T12:33:36;99101.28;;;-9.85;69.37
58239;BME280;44037;55.638;37.356;2024-01-10T12:36:06;99100.81;;;-9.74;69.06
58239;BME280;44037;55.638;37.356;2024-01-10T12:38:38;99111.03;;;-9.69;68.56
58239;BME280;44037;55.638;37.356;2024-01-10T12:41:05;99104.59;;;-9.81;68.77
58239;BME280;44037;55.638;37.356;2024-01-10T12:43:35;99106.34;;;-9.82;68.35
58239;BME280;44037;55.638;37.356;2024-01-10T12:46:03;99103.63;;;-9.79;68.47
58239;BME280;44037;55.638;37.356;2024-01-10T12:48:31;99095.44;;;-9.90;68.71
58239;BME280;44037;55.638;37.356;2024-01-10T12:50:59;99090.97;;;-9.86;68.83
58239;BME280;44037;55.638;37.356;2024-01-10T12:53:32;99087.81;;;-9.95;68.70